Главная страница
METAR-TAF:

METAR-TAF

Аэропорты :

Cumberland, Мэриленд, США

широта: 39-36-56N, долгота: 078-45-39W, высота над уровнем моря: 236 м

Текущие метеонаблюдения

Эта сводка был подготовлена 27 минут назад, в 02:40 UTC
Ветер 11 Узел от северо-западный
Температура -4°C
Влажность 63%
Давление 1027 hPa
Видимость: 16.1 км
Отдельные облака на высоте 3800 фута
Рассеянная облачность на высоте 4400 фута
Рассеянная облачность на высоте 6500 фута

METAR: KCBE 130240Z AUTO 32011KT 10SM SCT038 BKN044 BKN065 M04/M10 A3032 RMK AO2 T10371104

Время: 22:07 (03:07 UTC)


TAF: отсутствует

Метеонаблюдения и прогнозы для более 4000 аэропортов (сводки METAR и TAF).

Имеющиеся станции представлены на карте желтыми и красными точками.

Чтобы увидеть название станции, наведите на нее мышь.

Затем щелкните, чтобы увидеть метеонаблюдения и метеопрогнозы.

Управление картой: чтобы увеличить масштаб, щелкните зеленые кнопки с черным крестиком; чтобы уменьшить масштаб, щелкните зеленую кнопку с тире; для просмотра соседних карт щелкайте зеленые стрелки.


METAR-TAF: